createdAt,value
2023-04-02T00:00:06.411Z,5.96
2023-04-02T00:01:23.772Z,5.92
2023-04-02T00:02:31.009Z,5.93
2023-04-02T00:04:05.726Z,5.92
2023-04-02T00:05:31.051Z,5.79
2023-04-02T00:06:40.451Z,5.81
2023-04-02T00:07:44.938Z,5.83
2023-04-02T00:08:48.845Z,5.86
2023-04-02T00:09:50.423Z,5.86
2023-04-02T00:10:56.779Z,6.00
2023-04-02T00:12:00.376Z,5.67
2023-04-02T00:13:05.802Z,5.72
2023-04-02T00:14:16.592Z,5.90
2023-04-02T00:15:19.020Z,5.65
2023-04-02T00:16:24.803Z,5.67
2023-04-02T00:17:27.582Z,5.60
2023-04-02T00:18:29.525Z,5.66
2023-04-02T00:19:37.834Z,5.87
2023-04-02T00:20:42.905Z,5.95
2023-04-02T00:21:47.597Z,5.88
2023-04-02T00:22:49.158Z,5.89
2023-04-02T00:23:55.314Z,5.75
2023-04-02T00:24:57.428Z,5.89
2023-04-02T00:26:01.521Z,6.10
2023-04-02T00:27:03.296Z,6.38
2023-04-02T00:28:05.926Z,6.36
2023-04-02T00:29:07.973Z,6.24
2023-04-02T00:30:13.868Z,6.26
2023-04-02T00:31:18.822Z,6.11
2023-04-02T00:32:25.970Z,6.31
2023-04-02T00:33:30.306Z,6.04
2023-04-02T00:34:38.272Z,6.19
2023-04-02T00:35:40.266Z,6.12
2023-04-02T00:36:46.873Z,6.04
2023-04-02T00:37:49.868Z,5.77
2023-04-02T00:38:52.568Z,5.78
2023-04-02T00:40:00.804Z,5.94
2023-04-02T00:41:07.719Z,5.85
2023-04-02T00:42:12.940Z,5.81
2023-04-02T00:43:17.497Z,5.80
2023-04-02T00:44:21.663Z,5.65
2023-04-02T00:45:29.160Z,5.99
2023-04-02T00:46:34.590Z,6.14
2023-04-02T00:47:39.830Z,6.39
2023-04-02T00:48:48.950Z,6.26
2023-04-02T00:49:56.773Z,5.91
2023-04-02T00:51:03.739Z,6.08
2023-04-02T00:52:08.455Z,6.05
2023-04-02T00:53:17.292Z,6.14
2023-04-02T00:54:22.663Z,6.23
2023-04-02T00:55:27.202Z,6.07
2023-04-02T00:56:35.311Z,6.05
2023-04-02T00:57:37.256Z,5.86
2023-04-02T00:58:39.973Z,6.00
2023-04-02T00:59:49.100Z,5.83
2023-04-02T01:00:53.118Z,5.75
2023-04-02T01:02:01.545Z,5.80
2023-04-02T01:03:35.134Z,5.85
2023-04-02T01:04:37.047Z,5.74
2023-04-02T01:05:40.333Z,5.91
2023-04-02T01:06:43.867Z,6.11
2023-04-02T01:07:58.495Z,6.13
2023-04-02T01:09:21.441Z,6.06
2023-04-02T01:10:41.379Z,5.84
2023-04-02T01:12:01.976Z,5.56
2023-04-02T01:13:14.972Z,5.74
2023-04-02T01:14:25.703Z,5.70
2023-04-02T01:15:38.155Z,5.90
2023-04-02T01:16:50.402Z,5.33
2023-04-02T01:18:13.772Z,5.25
2023-04-02T01:19:42.350Z,5.47
2023-04-02T01:21:21.830Z,5.43
2023-04-02T01:22:35.366Z,5.42
2023-04-02T01:23:49.340Z,5.65
2023-04-02T01:24:51.160Z,5.79
2023-04-02T01:25:59.707Z,6.01
2023-04-02T01:27:06.266Z,6.04
2023-04-02T01:28:19.442Z,6.00
2023-04-02T01:29:27.551Z,5.81
2023-04-02T01:30:29.404Z,5.71
2023-04-02T01:31:33.311Z,5.55
2023-04-02T01:32:35.780Z,5.64
2023-04-02T01:33:38.497Z,5.69
2023-04-02T01:34:41.398Z,5.53
2023-04-02T01:35:49.798Z,5.53
2023-04-02T01:37:04.928Z,5.41
2023-04-02T01:38:13.782Z,5.42
2023-04-02T01:39:31.295Z,5.37
2023-04-02T01:40:39.959Z,5.54
2023-04-02T01:41:48.100Z,5.44
2023-04-02T01:42:57.632Z,5.32
2023-04-02T01:44:05.425Z,5.44
2023-04-02T01:45:12.238Z,5.63
2023-04-02T01:46:25.860Z,5.69
2023-04-02T01:47:29.725Z,5.50
2023-04-02T01:48:31.855Z,5.50
2023-04-02T01:49:34.396Z,5.39
2023-04-02T01:50:38.622Z,5.24
2023-04-02T01:51:45.785Z,5.09
2023-04-02T01:52:50.685Z,5.01
2023-04-02T01:53:53.472Z,5.04
2023-04-02T01:54:57.597Z,5.10
2023-04-02T01:56:04.760Z,5.31
2023-04-02T01:57:08.085Z,5.25
2023-04-02T01:58:12.467Z,5.43
2023-04-02T01:59:16.852Z,5.09
2023-04-02T02:00:22.408Z,4.89
2023-04-02T02:01:28.722Z,4.88
2023-04-02T02:02:31.457Z,4.97
2023-04-02T02:03:34.416Z,4.97
2023-04-02T02:04:37.240Z,4.80
2023-04-02T02:05:39.010Z,4.77
2023-04-02T02:06:42.128Z,4.71
2023-04-02T02:07:44.232Z,4.85
2023-04-02T02:08:51.041Z,5.16
2023-04-02T02:09:53.268Z,5.16
2023-04-02T02:10:55.831Z,5.13
2023-04-02T02:11:58.029Z,5.27
2023-04-02T02:13:00.803Z,4.97
2023-04-02T02:14:11.977Z,4.87
2023-04-02T02:15:16.648Z,5.14
2023-04-02T02:16:21.060Z,5.10
2023-04-02T02:17:28.374Z,5.14
2023-04-02T02:18:32.095Z,4.90
2023-04-02T02:19:36.902Z,4.93
2023-04-02T02:20:39.594Z,4.89
2023-04-02T02:21:44.564Z,5.00
2023-04-02T02:22:49.603Z,4.92
2023-04-02T02:23:51.509Z,4.75
2023-04-02T02:24:54.765Z,4.57
2023-04-02T02:25:56.842Z,4.72
2023-04-02T02:27:15.770Z,4.80
2023-04-02T02:28:21.436Z,4.81
2023-04-02T02:29:27.282Z,4.82
2023-04-02T02:30:33.316Z,4.73
2023-04-02T02:31:41.786Z,4.85
2023-04-02T02:32:54.436Z,4.98
2023-04-02T02:34:01.491Z,5.08
2023-04-02T02:35:11.326Z,4.97
2023-04-02T02:36:22.622Z,5.05
2023-04-02T02:37:28.343Z,5.21
2023-04-02T02:38:43.514Z,5.14
2023-04-02T02:39:50.253Z,4.85
2023-04-02T02:40:57.053Z,4.74
2023-04-02T02:42:04.369Z,5.00
2023-04-02T02:43:12.230Z,4.82
2023-04-02T02:44:20.736Z,4.71
2023-04-02T02:45:26.526Z,4.69
2023-04-02T02:46:31.463Z,4.58
2023-04-02T02:47:38.145Z,4.65
2023-04-02T02:48:42.722Z,4.36
2023-04-02T02:49:47.211Z,4.27
2023-04-02T02:50:51.516Z,4.21
2023-04-02T02:51:59.359Z,4.23
2023-04-02T02:53:14.747Z,4.37
2023-04-02T02:54:18.982Z,4.56
2023-04-02T02:55:27.479Z,4.52
2023-04-02T02:56:31.146Z,4.69
2023-04-02T02:57:38.564Z,4.37
2023-04-02T02:58:40.830Z,4.46
2023-04-02T02:59:44.588Z,4.52
2023-04-02T03:00:47.354Z,4.34
2023-04-02T03:01:49.960Z,4.45
2023-04-02T03:02:56.253Z,4.78
2023-04-02T03:03:59.162Z,4.70
2023-04-02T03:05:02.864Z,4.62
2023-04-02T03:06:08.401Z,4.51
2023-04-02T03:07:10.481Z,4.25
2023-04-02T03:08:21.624Z,4.30
2023-04-02T03:09:33.675Z,4.60
2023-04-02T03:10:44.860Z,4.61
2023-04-02T03:11:53.078Z,4.48
2023-04-02T03:13:03.248Z,4.56
2023-04-02T03:14:16.240Z,4.65
2023-04-02T03:15:24.477Z,4.69
2023-04-02T03:16:32.174Z,4.74
2023-04-02T03:17:41.799Z,4.83
2023-04-02T03:18:52.180Z,5.00
2023-04-02T03:19:59.352Z,4.69
2023-04-02T03:21:08.248Z,4.36
2023-04-02T03:22:17.388Z,4.64
2023-04-02T03:23:24.354Z,4.59
2023-04-02T03:24:35.818Z,4.55
2023-04-02T03:25:41.902Z,4.50
2023-04-02T03:26:50.387Z,4.48
2023-04-02T03:27:56.941Z,4.33
2023-04-02T03:29:03.811Z,4.29
2023-04-02T03:30:23.911Z,4.51
2023-04-02T03:31:33.042Z,4.25
2023-04-02T03:32:39.164Z,4.26
2023-04-02T03:33:47.046Z,4.31
2023-04-02T03:34:52.606Z,4.40
2023-04-02T03:36:01.913Z,4.21
2023-04-02T03:37:12.561Z,4.34
2023-04-02T03:38:21.015Z,4.43
2023-04-02T03:39:29.521Z,4.60
2023-04-02T03:40:35.230Z,4.55
2023-04-02T03:41:43.004Z,4.44
2023-04-02T03:42:49.044Z,4.27
2023-04-02T03:43:57.186Z,4.24
2023-04-02T03:45:03.073Z,4.24
2023-04-02T03:46:16.096Z,4.22
2023-04-02T03:47:24.637Z,4.07
2023-04-02T03:48:31.634Z,4.03
2023-04-02T03:49:38.990Z,3.88
2023-04-02T03:50:46.824Z,4.06
2023-04-02T03:51:54.975Z,4.02
2023-04-02T03:52:58.354Z,4.01
2023-04-02T03:54:00.190Z,4.00
2023-04-02T03:55:10.489Z,4.07
2023-04-02T03:56:22.834Z,3.93
2023-04-02T03:57:36.764Z,4.19
2023-04-02T03:58:42.786Z,4.32
2023-04-02T03:59:52.778Z,4.27
2023-04-02T04:00:59.660Z,4.28
2023-04-02T04:02:11.067Z,4.26
2023-04-02T04:03:16.008Z,3.94
2023-04-02T04:04:20.989Z,3.83
2023-04-02T04:05:28.868Z,4.06
2023-04-02T04:06:34.174Z,4.37
2023-04-02T04:07:39.321Z,4.31
2023-04-02T04:08:46.519Z,4.31
2023-04-02T04:09:51.702Z,4.18
2023-04-02T04:10:58.011Z,4.04
2023-04-02T04:12:09.712Z,4.03
2023-04-02T04:13:16.220Z,3.96
2023-04-02T04:14:20.115Z,3.93
2023-04-02T04:15:28.332Z,3.91
2023-04-02T04:16:35.911Z,3.82
2023-04-02T04:17:51.688Z,3.84
2023-04-02T04:19:03.050Z,3.97
2023-04-02T04:20:17.293Z,3.80
2023-04-02T04:21:30.326Z,3.69
2023-04-02T04:22:33.903Z,3.69
2023-04-02T04:23:38.418Z,3.78
2023-04-02T04:24:45.849Z,3.64
2023-04-02T04:25:49.416Z,3.80
2023-04-02T04:26:56.277Z,3.62
2023-04-02T04:28:05.694Z,3.55
2023-04-02T04:29:18.520Z,3.52
2023-04-02T04:30:24.972Z,3.53
2023-04-02T04:31:34.235Z,3.39
2023-04-02T04:32:42.662Z,3.54
2023-04-02T04:33:50.567Z,3.52
2023-04-02T04:34:56.650Z,3.77
2023-04-02T04:36:00.879Z,3.82
2023-04-02T04:37:07.873Z,3.80
2023-04-02T04:38:16.939Z,3.94
2023-04-02T04:39:23.373Z,3.97
2023-04-02T04:40:30.811Z,4.13
2023-04-02T04:41:35.871Z,4.28
2023-04-02T04:42:41.618Z,3.95
2023-04-02T04:43:48.026Z,3.70
2023-04-02T04:44:58.185Z,3.87
2023-04-02T04:46:04.228Z,3.99
2023-04-02T04:47:11.556Z,4.16
2023-04-02T04:48:19.169Z,4.19
2023-04-02T04:49:27.453Z,4.02
2023-04-02T04:50:33.201Z,3.97
2023-04-02T04:51:40.539Z,4.04
2023-04-02T04:52:43.599Z,4.20
2023-04-02T04:53:49.010Z,4.43
2023-04-02T04:54:50.899Z,4.11
2023-04-02T04:55:56.118Z,3.76
2023-04-02T04:57:02.594Z,4.00
2023-04-02T04:58:15.760Z,4.12
2023-04-02T04:59:22.730Z,4.14
2023-04-02T05:00:31.182Z,3.96
2023-04-02T05:01:40.882Z,4.29
2023-04-02T05:02:51.940Z,4.11
2023-04-02T05:04:00.370Z,4.22
2023-04-02T05:05:03.975Z,4.23
2023-04-02T05:06:12.866Z,4.21
2023-04-02T05:07:18.879Z,4.41
2023-04-02T05:08:28.024Z,3.99
2023-04-02T05:09:35.094Z,3.61
2023-04-02T05:10:41.990Z,3.59
2023-04-02T05:11:47.261Z,3.66
2023-04-02T05:12:54.768Z,3.71
2023-04-02T05:14:01.706Z,3.86
2023-04-02T05:15:12.676Z,3.99
2023-04-02T05:16:21.561Z,3.96
2023-04-02T05:17:29.467Z,3.93
2023-04-02T05:18:37.193Z,3.54
2023-04-02T05:19:44.595Z,3.61
2023-04-02T05:20:52.263Z,3.74
2023-04-02T05:21:59.333Z,3.86
2023-04-02T05:23:07.007Z,3.97
2023-04-02T05:24:40.211Z,3.99
2023-04-02T05:25:53.310Z,3.77
2023-04-02T05:27:02.161Z,3.72
2023-04-02T05:28:08.399Z,3.65
2023-04-02T05:29:17.131Z,3.69
2023-04-02T05:30:41.192Z,3.83
2023-04-02T05:31:47.875Z,3.86
2023-04-02T05:32:54.412Z,3.89
2023-04-02T05:33:57.884Z,4.20
2023-04-02T05:35:00.013Z,4.53
2023-04-02T05:36:06.772Z,4.65
2023-04-02T05:37:17.872Z,4.41
2023-04-02T05:38:22.653Z,4.33
2023-04-02T05:39:28.212Z,4.03
2023-04-02T05:40:34.013Z,3.72
2023-04-02T05:41:41.078Z,3.68
2023-04-02T05:42:55.885Z,3.65
2023-04-02T05:44:06.693Z,3.66
2023-04-02T05:45:14.033Z,3.64
2023-04-02T05:46:19.515Z,3.55
2023-04-02T05:47:25.581Z,3.58
2023-04-02T05:48:32.887Z,3.79
2023-04-02T05:49:41.818Z,3.91
2023-04-02T05:50:47.372Z,3.91
2023-04-02T05:51:52.483Z,3.92
2023-04-02T05:52:59.754Z,3.78
2023-04-02T05:54:03.758Z,3.82
2023-04-02T05:55:37.136Z,3.56
2023-04-02T05:56:44.682Z,3.48
2023-04-02T05:58:07.039Z,3.18
2023-04-02T05:59:19.957Z,3.55
2023-04-02T06:00:29.095Z,3.16
2023-04-02T06:01:40.517Z,3.17
2023-04-02T06:02:53.021Z,3.25
2023-04-02T06:04:02.022Z,3.30
2023-04-02T06:05:07.472Z,3.23
2023-04-02T06:06:18.546Z,3.28
2023-04-02T06:07:24.216Z,3.44
2023-04-02T06:08:32.842Z,3.49
2023-04-02T06:09:41.502Z,3.38
2023-04-02T06:10:54.587Z,3.38
2023-04-02T06:12:05.583Z,3.43
2023-04-02T06:13:08.874Z,3.19
2023-04-02T06:14:13.898Z,3.00
2023-04-02T06:15:16.787Z,3.10
2023-04-02T06:16:22.018Z,3.06
2023-04-02T06:17:24.024Z,3.22
2023-04-02T06:18:28.839Z,3.06
2023-04-02T06:19:44.589Z,2.99
2023-04-02T06:20:46.867Z,3.16
2023-04-02T06:21:59.275Z,3.11
2023-04-02T06:23:07.321Z,3.25
2023-04-02T06:24:15.391Z,3.24
2023-04-02T06:25:23.117Z,3.27
2023-04-02T06:26:31.332Z,3.06
2023-04-02T06:27:34.208Z,3.02
2023-04-02T06:28:42.146Z,3.00
2023-04-02T06:29:46.067Z,3.28
2023-04-02T06:30:49.556Z,3.31
2023-04-02T06:31:54.070Z,3.12
2023-04-02T06:32:57.795Z,3.06
2023-04-02T06:33:59.554Z,3.09
2023-04-02T06:35:02.456Z,3.06
2023-04-02T06:36:06.927Z,3.18
2023-04-02T06:37:18.392Z,3.22
2023-04-02T06:38:25.553Z,3.26
2023-04-02T06:39:28.026Z,3.23
2023-04-02T06:40:41.867Z,3.36
2023-04-02T06:41:44.760Z,3.54
2023-04-02T06:42:50.066Z,3.54
2023-04-02T06:43:56.111Z,3.88
2023-04-02T06:44:58.728Z,3.82
2023-04-02T06:46:06.206Z,3.69
2023-04-02T06:47:18.048Z,3.66
2023-04-02T06:48:21.033Z,3.63
2023-04-02T06:49:27.161Z,3.76
2023-04-02T06:50:34.293Z,3.88
2023-04-02T06:51:38.260Z,3.61
2023-04-02T06:52:45.842Z,3.57
2023-04-02T06:53:50.436Z,3.67
2023-04-02T06:54:51.997Z,3.89
2023-04-02T06:56:02.133Z,3.70
2023-04-02T06:57:07.087Z,3.57
2023-04-02T06:58:10.198Z,3.73
2023-04-02T06:59:13.786Z,3.95
2023-04-02T07:00:27.013Z,3.94
2023-04-02T07:01:32.583Z,3.82
2023-04-02T07:02:38.432Z,3.78
2023-04-02T07:03:40.520Z,3.80
2023-04-02T07:04:43.013Z,3.79
2023-04-02T07:05:44.607Z,3.92
2023-04-02T07:06:47.440Z,3.97
2023-04-02T07:07:48.912Z,3.58
2023-04-02T07:08:51.687Z,3.73
2023-04-02T07:09:54.343Z,3.93
2023-04-02T07:10:56.298Z,3.95
2023-04-02T07:11:58.829Z,3.93
2023-04-02T07:13:02.502Z,3.97
2023-04-02T07:14:05.877Z,3.83
2023-04-02T07:15:08.961Z,3.71
2023-04-02T07:16:15.726Z,3.63
2023-04-02T07:17:20.011Z,3.56
2023-04-02T07:18:25.869Z,3.81
2023-04-02T07:19:28.481Z,4.04
2023-04-02T07:20:33.170Z,4.16
2023-04-02T07:21:34.668Z,4.05
2023-04-02T07:22:37.149Z,3.87
2023-04-02T07:23:38.919Z,3.80
2023-04-02T07:24:41.365Z,3.92
2023-04-02T07:25:43.029Z,4.04
2023-04-02T07:26:47.587Z,4.15
2023-04-02T07:27:49.803Z,3.72
2023-04-02T07:28:54.307Z,3.76
2023-04-02T07:29:56.851Z,3.71
2023-04-02T07:30:58.534Z,3.72
2023-04-02T07:32:01.013Z,3.88
2023-04-02T07:33:02.610Z,3.83
2023-04-02T07:34:06.192Z,3.59
2023-04-02T07:35:08.533Z,3.73
2023-04-02T07:36:15.441Z,3.94
2023-04-02T07:37:17.956Z,3.99
2023-04-02T07:38:19.740Z,4.09
2023-04-02T07:39:22.231Z,4.07
2023-04-02T07:40:24.265Z,4.18
2023-04-02T07:41:27.557Z,4.00
2023-04-02T07:42:29.074Z,4.07
2023-04-02T07:43:31.621Z,3.91
2023-04-02T07:44:34.560Z,3.78
2023-04-02T07:45:37.394Z,3.71
2023-04-02T07:46:40.104Z,3.63
2023-04-02T07:47:42.329Z,3.77
2023-04-02T07:48:45.420Z,3.59
2023-04-02T07:49:47.851Z,3.84
2023-04-02T07:50:49.393Z,3.59
2023-04-02T07:51:52.980Z,3.50
2023-04-02T07:52:54.492Z,3.53
2023-04-02T07:53:57.160Z,3.62
2023-04-02T07:54:58.852Z,3.88
2023-04-02T07:56:04.014Z,3.56
2023-04-02T07:57:05.971Z,3.30
2023-04-02T07:58:09.682Z,3.44
2023-04-02T07:59:12.341Z,3.53
2023-04-02T08:00:16.361Z,3.46
2023-04-02T08:01:20.897Z,3.40
2023-04-02T08:02:23.286Z,3.36
2023-04-02T08:03:26.225Z,3.35
2023-04-02T08:04:29.099Z,3.52
2023-04-02T08:05:30.710Z,3.53
2023-04-02T08:06:33.185Z,3.68
2023-04-02T08:07:35.782Z,3.83
2023-04-02T08:08:37.902Z,4.13
2023-04-02T08:09:40.599Z,3.70
2023-04-02T08:10:42.114Z,3.74
2023-04-02T08:11:47.261Z,3.67
2023-04-02T08:12:49.826Z,3.77
2023-04-02T08:13:52.804Z,4.03
2023-04-02T08:14:54.341Z,4.22
2023-04-02T08:16:00.694Z,4.04
2023-04-02T08:17:03.219Z,3.81
2023-04-02T08:18:05.028Z,4.27
2023-04-02T08:19:07.934Z,4.15
2023-04-02T08:20:15.042Z,4.55
2023-04-02T08:21:17.568Z,4.31
2023-04-02T08:22:20.289Z,4.27
2023-04-02T08:23:23.233Z,4.47
2023-04-02T08:24:24.829Z,4.61
2023-04-02T08:25:27.824Z,4.96
2023-04-02T08:26:29.384Z,5.05
2023-04-02T08:27:31.873Z,4.40
2023-04-02T08:28:33.792Z,4.37
2023-04-02T08:29:36.696Z,4.62
2023-04-02T08:30:41.208Z,4.57
2023-04-02T08:31:45.066Z,4.16
2023-04-02T08:32:46.831Z,4.05
2023-04-02T08:33:49.709Z,3.73
2023-04-02T08:34:51.368Z,3.91
2023-04-02T08:35:53.922Z,4.06
2023-04-02T08:36:57.366Z,4.28
2023-04-02T08:37:59.978Z,3.76
2023-04-02T08:39:01.913Z,3.71
2023-04-02T08:40:05.103Z,3.72
2023-04-02T08:41:07.638Z,3.94
2023-04-02T08:42:22.627Z,4.25
2023-04-02T08:43:38.811Z,4.55
2023-04-02T08:44:52.741Z,4.54
2023-04-02T08:46:06.861Z,4.57
2023-04-02T08:47:10.940Z,4.65
2023-04-02T08:48:15.994Z,4.67
2023-04-02T08:49:23.106Z,4.76
2023-04-02T08:50:33.064Z,4.91
2023-04-02T08:51:37.452Z,5.04
2023-04-02T08:52:39.542Z,4.82
2023-04-02T08:53:42.175Z,4.75
2023-04-02T08:54:43.785Z,4.87
2023-04-02T08:55:55.807Z,5.02
2023-04-02T08:57:02.804Z,4.99
2023-04-02T08:58:13.361Z,5.14
2023-04-02T08:59:25.319Z,5.37
2023-04-02T09:00:33.526Z,5.08
2023-04-02T09:01:47.263Z,4.84
2023-04-02T09:02:54.598Z,4.48
2023-04-02T09:03:59.864Z,4.42
2023-04-02T09:05:05.049Z,4.30
2023-04-02T09:06:13.466Z,4.05
2023-04-02T09:07:17.612Z,4.19
2023-04-02T09:08:24.450Z,4.23
2023-04-02T09:09:44.097Z,3.86
2023-04-02T09:10:52.055Z,4.04
2023-04-02T09:11:59.051Z,4.01
2023-04-02T09:13:03.664Z,4.03
2023-04-02T09:14:16.923Z,3.89
2023-04-02T09:15:26.226Z,3.96
2023-04-02T09:16:42.476Z,4.08
2023-04-02T09:17:53.606Z,3.86
2023-04-02T09:18:57.271Z,4.07
2023-04-02T09:20:05.483Z,4.22
2023-04-02T09:21:28.414Z,4.36
2023-04-02T09:22:34.913Z,4.19
2023-04-02T09:23:36.646Z,4.41
2023-04-02T09:24:39.263Z,4.26
2023-04-02T09:25:48.464Z,4.20
2023-04-02T09:26:56.684Z,4.35
2023-04-02T09:28:01.366Z,4.49
2023-04-02T09:29:25.763Z,4.64
2023-04-02T09:30:41.908Z,4.63
2023-04-02T09:31:47.850Z,4.51
2023-04-02T09:32:51.926Z,4.67
2023-04-02T09:33:54.728Z,4.71
2023-04-02T09:35:25.539Z,4.96
2023-04-02T09:36:39.012Z,5.05
2023-04-02T09:37:40.717Z,5.08
2023-04-02T09:38:58.899Z,4.98
2023-04-02T09:40:16.937Z,4.94
2023-04-02T09:41:20.949Z,4.47
2023-04-02T09:42:31.713Z,4.41
2023-04-02T09:43:35.332Z,4.34
2023-04-02T09:44:37.868Z,4.10
2023-04-02T09:45:41.147Z,4.17
2023-04-02T09:46:51.074Z,4.47
2023-04-02T09:47:55.914Z,4.19
2023-04-02T09:49:01.804Z,4.27
2023-04-02T09:50:29.351Z,4.21
2023-04-02T09:51:34.278Z,4.37
2023-04-02T09:52:37.180Z,4.10
2023-04-02T09:53:42.430Z,3.97
2023-04-02T09:54:44.565Z,4.09
2023-04-02T09:55:46.997Z,4.01
2023-04-02T09:57:03.671Z,4.14
2023-04-02T09:58:13.254Z,4.27
2023-04-02T09:59:17.951Z,4.49
2023-04-02T10:00:31.487Z,4.65
2023-04-02T10:01:36.616Z,4.30
2023-04-02T10:02:38.707Z,4.35
2023-04-02T10:03:43.947Z,4.12
2023-04-02T10:04:48.103Z,4.21
2023-04-02T10:06:05.567Z,4.38
2023-04-02T10:07:07.181Z,4.55
2023-04-02T10:08:19.542Z,4.88
2023-04-02T10:09:30.390Z,4.54
2023-04-02T10:10:36.166Z,4.79
2023-04-02T10:11:46.396Z,4.78
2023-04-02T10:12:57.641Z,4.83
2023-04-02T10:14:02.860Z,4.98
2023-04-02T10:15:06.954Z,4.87
2023-04-02T10:16:15.407Z,4.84
2023-04-02T10:17:23.003Z,4.48
2023-04-02T10:18:36.436Z,4.67
2023-04-02T10:19:41.257Z,4.77
2023-04-02T10:20:50.955Z,4.96
2023-04-02T10:21:57.705Z,4.88
2023-04-02T10:22:59.431Z,4.83
2023-04-02T10:24:02.909Z,4.35
2023-04-02T10:25:13.815Z,4.33
2023-04-02T10:26:27.184Z,4.49
2023-04-02T10:27:38.408Z,4.41
2023-04-02T10:28:56.678Z,4.75
2023-04-02T10:30:12.257Z,4.92
2023-04-02T10:31:20.485Z,5.11
2023-04-02T10:32:27.476Z,5.25
2023-04-02T10:33:36.120Z,5.22
2023-04-02T10:34:46.093Z,5.23
2023-04-02T10:35:56.666Z,5.04
2023-04-02T10:37:05.873Z,5.10
2023-04-02T10:38:38.743Z,5.22
2023-04-02T10:39:43.099Z,5.14
2023-04-02T10:40:50.682Z,5.02
2023-04-02T10:41:57.920Z,5.08
2023-04-02T10:43:33.851Z,4.77
2023-04-02T10:44:54.138Z,5.02
2023-04-02T10:46:05.650Z,5.18
2023-04-02T10:47:23.467Z,5.38
2023-04-02T10:48:35.993Z,5.18
2023-04-02T10:49:44.035Z,5.08
2023-04-02T10:50:55.211Z,4.94
2023-04-02T10:52:07.697Z,4.94
2023-04-02T10:53:15.453Z,5.05
2023-04-02T10:54:36.466Z,5.09
2023-04-02T10:55:43.221Z,5.36
2023-04-02T10:56:51.091Z,5.46
2023-04-02T10:57:54.508Z,5.07
2023-04-02T10:58:59.347Z,5.16
2023-04-02T11:00:08.065Z,5.10
2023-04-02T11:01:13.570Z,4.99
2023-04-02T11:02:25.096Z,5.05
2023-04-02T11:03:32.094Z,4.74
2023-04-02T11:04:40.402Z,4.96
2023-04-02T11:05:44.769Z,5.22
2023-04-02T11:06:48.907Z,4.94
2023-04-02T11:07:58.031Z,5.14
2023-04-02T11:09:01.755Z,4.97
2023-04-02T11:10:04.812Z,5.17
2023-04-02T11:11:09.883Z,5.32
2023-04-02T11:12:19.683Z,4.83
2023-04-02T11:13:24.531Z,4.67
2023-04-02T11:14:27.609Z,4.78
2023-04-02T11:15:30.632Z,4.80
2023-04-02T11:16:35.119Z,4.75
2023-04-02T11:17:38.401Z,4.72
2023-04-02T11:18:40.926Z,4.94
2023-04-02T11:19:42.986Z,4.76
2023-04-02T11:20:57.346Z,4.72
2023-04-02T11:22:01.964Z,4.87
2023-04-02T11:23:10.051Z,5.03
2023-04-02T11:24:24.635Z,5.36
2023-04-02T11:25:26.021Z,5.29
2023-04-02T11:26:32.260Z,5.02
2023-04-02T11:27:35.139Z,5.09
2023-04-02T11:28:36.569Z,5.04
2023-04-02T11:29:39.481Z,5.00
2023-04-02T11:30:42.540Z,4.76
2023-04-02T11:31:45.779Z,4.59
2023-04-02T11:32:49.791Z,4.58
2023-04-02T11:33:51.510Z,4.88
2023-04-02T11:35:24.828Z,4.90
2023-04-02T11:36:47.988Z,5.21
2023-04-02T11:37:50.789Z,5.60
2023-04-02T11:38:54.987Z,5.66
2023-04-02T11:40:00.840Z,5.24
2023-04-02T11:41:02.569Z,5.12
2023-04-02T11:42:06.252Z,5.12
2023-04-02T11:43:27.505Z,5.38
2023-04-02T11:44:29.918Z,5.16
2023-04-02T11:45:55.547Z,5.38
2023-04-02T11:47:17.457Z,5.43
2023-04-02T11:48:29.470Z,5.55
2023-04-02T11:49:36.836Z,5.54
2023-04-02T11:50:39.997Z,5.34
2023-04-02T11:51:50.787Z,5.39
2023-04-02T11:52:55.653Z,5.61
2023-04-02T11:53:58.680Z,5.70
2023-04-02T11:55:02.706Z,5.65
2023-04-02T11:56:19.545Z,5.58
2023-04-02T11:57:28.194Z,5.36
2023-04-02T11:58:35.459Z,5.11
2023-04-02T11:59:41.174Z,5.22
2023-04-02T12:00:54.707Z,5.34
2023-04-02T12:02:08.011Z,5.02
2023-04-02T12:03:18.958Z,5.26
2023-04-02T12:04:33.124Z,5.23
2023-04-02T12:05:43.284Z,5.25
2023-04-02T12:06:54.806Z,5.24
2023-04-02T12:08:05.168Z,5.22
2023-04-02T12:09:15.369Z,5.67
2023-04-02T12:10:19.128Z,5.70
2023-04-02T12:11:30.729Z,5.70
2023-04-02T12:12:35.109Z,5.55
2023-04-02T12:13:51.795Z,5.85
2023-04-02T12:14:55.840Z,5.82
2023-04-02T12:15:57.546Z,5.87
2023-04-02T12:17:00.455Z,6.11
2023-04-02T12:18:06.432Z,6.16
2023-04-02T12:19:09.586Z,6.07
2023-04-02T12:20:20.323Z,6.04
2023-04-02T12:21:24.571Z,5.60
2023-04-02T12:22:28.042Z,5.90
2023-04-02T12:23:31.387Z,5.93
2023-04-02T12:24:35.323Z,6.13
2023-04-02T12:25:40.225Z,6.01
2023-04-02T12:26:46.307Z,6.11
2023-04-02T12:27:47.869Z,6.04
2023-04-02T12:28:50.205Z,5.86
2023-04-02T12:29:52.252Z,6.23
2023-04-02T12:31:03.454Z,6.28
2023-04-02T12:32:13.018Z,6.18
2023-04-02T12:33:16.527Z,6.17
2023-04-02T12:34:18.829Z,6.02
2023-04-02T12:35:28.765Z,6.47
2023-04-02T12:36:31.799Z,6.51
2023-04-02T12:37:33.193Z,6.21
2023-04-02T12:38:37.842Z,6.16
2023-04-02T12:39:40.553Z,6.20
2023-04-02T12:40:51.877Z,6.50
2023-04-02T12:41:54.851Z,6.51
2023-04-02T12:42:57.256Z,6.09
2023-04-02T12:43:59.406Z,6.16
2023-04-02T12:45:02.796Z,6.16
2023-04-02T12:46:05.555Z,6.21
2023-04-02T12:47:08.060Z,6.47
2023-04-02T12:48:12.330Z,6.00
2023-04-02T12:49:21.672Z,6.05
2023-04-02T12:50:24.383Z,5.92
2023-04-02T12:51:27.965Z,6.15
2023-04-02T12:52:30.978Z,6.10
2023-04-02T12:53:34.166Z,6.23
2023-04-02T12:54:38.048Z,6.30
2023-04-02T12:55:46.277Z,6.34
2023-04-02T12:56:49.169Z,5.90
2023-04-02T12:57:56.208Z,5.81
2023-04-02T12:58:58.047Z,5.93
2023-04-02T13:00:01.110Z,5.88
2023-04-02T13:01:11.052Z,5.93
2023-04-02T13:02:18.268Z,5.70
2023-04-02T13:03:22.768Z,5.61
2023-04-02T13:04:24.378Z,5.67
2023-04-02T13:05:37.503Z,5.64
2023-04-02T13:06:40.637Z,5.63
2023-04-02T13:07:47.159Z,5.80
2023-04-02T13:08:49.873Z,5.98
2023-04-02T13:09:52.910Z,5.75
2023-04-02T13:10:57.909Z,5.83
2023-04-02T13:12:00.793Z,5.83
2023-04-02T13:13:03.310Z,6.14
2023-04-02T13:14:07.112Z,6.46
2023-04-02T13:15:21.146Z,6.36
2023-04-02T13:16:33.690Z,6.45
2023-04-02T13:17:44.353Z,6.40
2023-04-02T13:18:48.020Z,6.52
2023-04-02T13:19:49.719Z,6.23
2023-04-02T13:20:58.210Z,6.46
2023-04-02T13:22:01.415Z,6.76
2023-04-02T13:23:23.036Z,6.83
2023-04-02T13:24:27.340Z,6.87
2023-04-02T13:25:30.069Z,7.12
2023-04-02T13:26:32.519Z,7.29
2023-04-02T13:27:33.847Z,7.07
2023-04-02T13:28:36.201Z,6.68
2023-04-02T13:29:38.573Z,6.83
2023-04-02T13:30:39.981Z,7.14
2023-04-02T13:31:42.533Z,7.11
2023-04-02T13:32:44.017Z,7.33
2023-04-02T13:33:46.520Z,7.47
2023-04-02T13:34:47.917Z,7.44
2023-04-02T13:35:50.727Z,7.35
2023-04-02T13:36:52.334Z,7.50
2023-04-02T13:37:57.261Z,7.48
2023-04-02T13:38:58.794Z,7.59
2023-04-02T13:40:04.547Z,7.04
2023-04-02T13:41:06.137Z,6.93
2023-04-02T13:42:08.834Z,7.17
2023-04-02T13:43:15.524Z,7.05
2023-04-02T13:44:29.490Z,7.14
2023-04-02T13:45:32.404Z,7.23
2023-04-02T13:46:35.814Z,7.04
2023-04-02T13:47:39.142Z,7.14
2023-04-02T13:48:43.471Z,7.36
2023-04-02T13:49:45.924Z,7.18
2023-04-02T13:50:47.409Z,6.83
2023-04-02T13:51:51.602Z,6.88
2023-04-02T13:52:53.576Z,7.05
2023-04-02T13:53:57.706Z,6.93
2023-04-02T13:55:00.574Z,6.77
2023-04-02T13:56:08.372Z,6.84
2023-04-02T13:57:09.869Z,6.57
2023-04-02T13:58:12.358Z,6.62
2023-04-02T13:59:14.058Z,6.93
2023-04-02T14:00:17.148Z,6.93
2023-04-02T14:01:19.437Z,6.98
2023-04-02T14:02:25.160Z,6.93
2023-04-02T14:03:26.729Z,7.05
2023-04-02T14:04:34.333Z,7.31
2023-04-02T14:05:41.075Z,7.62
2023-04-02T14:07:02.845Z,7.33
2023-04-02T14:08:09.043Z,7.24
2023-04-02T14:09:16.572Z,7.11
2023-04-02T14:10:24.027Z,7.02
2023-04-02T14:11:32.730Z,7.14
2023-04-02T14:12:41.320Z,7.30
2023-04-02T14:13:54.911Z,7.11
2023-04-02T14:15:04.367Z,7.14
2023-04-02T14:16:13.748Z,7.42
2023-04-02T14:17:22.981Z,6.85
2023-04-02T14:18:32.952Z,6.97
2023-04-02T14:19:43.482Z,7.18
2023-04-02T14:20:51.621Z,7.23
2023-04-02T14:21:58.958Z,7.51
2023-04-02T14:23:13.797Z,7.45
2023-04-02T14:24:17.796Z,7.49
2023-04-02T14:25:24.085Z,7.28
2023-04-02T14:26:29.042Z,7.04
2023-04-02T14:27:39.069Z,6.98
2023-04-02T14:28:49.250Z,7.30
2023-04-02T14:29:56.887Z,6.83
2023-04-02T14:31:03.439Z,7.23
2023-04-02T14:32:07.697Z,7.40
2023-04-02T14:33:13.604Z,7.48
2023-04-02T14:34:21.267Z,7.45
2023-04-02T14:35:24.812Z,7.18
2023-04-02T14:36:31.895Z,7.02
2023-04-02T14:37:40.073Z,7.00
2023-04-02T14:38:43.667Z,7.04
2023-04-02T14:39:51.796Z,7.26
2023-04-02T14:40:58.304Z,7.42
2023-04-02T14:42:01.734Z,7.41
2023-04-02T14:43:08.180Z,7.55
2023-04-02T14:44:11.497Z,7.59
2023-04-02T14:45:17.978Z,7.39
2023-04-02T14:46:19.866Z,7.36
2023-04-02T14:47:25.454Z,6.96
2023-04-02T14:48:32.841Z,6.75
2023-04-02T14:49:39.608Z,6.83
2023-04-02T14:50:41.715Z,6.62